createdAt,value
2018-11-13T00:00:33.956Z,19.90
2018-11-13T00:03:03.694Z,17.67
2018-11-13T00:05:33.452Z,18.13
2018-11-13T00:08:03.216Z,14.03
2018-11-13T00:10:32.966Z,12.77
2018-11-13T00:13:02.731Z,14.73
2018-11-13T00:15:32.464Z,12.30
2018-11-13T00:18:02.578Z,14.53
2018-11-13T00:20:32.343Z,14.93
2018-11-13T00:23:02.191Z,14.00
2018-11-13T00:25:31.930Z,12.07
2018-11-13T00:28:01.704Z,11.07
2018-11-13T00:30:31.437Z,12.50
2018-11-13T00:33:01.219Z,13.13
2018-11-13T00:35:30.963Z,13.77
2018-11-13T00:38:00.748Z,14.30
2018-11-13T00:40:30.560Z,13.00
2018-11-13T00:43:00.264Z,9.90
2018-11-13T00:45:30.046Z,8.57
2018-11-13T00:47:59.789Z,7.70
2018-11-13T00:50:29.506Z,7.70
2018-11-13T00:52:59.267Z,4.47
2018-11-13T00:55:29.043Z,4.23
2018-11-13T00:57:58.782Z,4.67
2018-11-13T01:00:28.562Z,5.07
2018-11-13T01:02:58.429Z,5.87
2018-11-13T01:05:28.202Z,6.40
2018-11-13T01:07:57.855Z,4.77
2018-11-13T01:10:27.595Z,5.57
2018-11-13T01:12:57.643Z,4.93
2018-11-13T01:15:27.388Z,4.83
2018-11-13T01:17:57.476Z,5.07
2018-11-13T01:20:27.204Z,2.67
2018-11-13T01:22:56.963Z,2.97
2018-11-13T01:25:26.710Z,3.13
2018-11-13T01:27:56.431Z,4.60
2018-11-13T01:30:26.172Z,3.13
2018-11-13T01:32:55.911Z,1.90
2018-11-13T01:35:25.674Z,2.23
2018-11-13T01:37:55.424Z,3.70
2018-11-13T01:40:25.174Z,2.17
2018-11-13T01:42:54.931Z,1.93
2018-11-13T01:45:24.691Z,4.00
2018-11-13T01:47:54.465Z,2.47
2018-11-13T01:50:24.187Z,1.90
2018-11-13T01:52:53.948Z,1.97
2018-11-13T01:55:23.695Z,2.40
2018-11-13T01:57:53.467Z,2.00
2018-11-13T02:00:24.071Z,3.47
2018-11-13T02:02:55.071Z,2.37
2018-11-13T02:05:25.814Z,3.07
2018-11-13T02:07:56.024Z,2.87
2018-11-13T02:10:26.066Z,3.13
2018-11-13T02:12:55.864Z,2.10
2018-11-13T02:15:25.626Z,3.20
2018-11-13T02:17:55.394Z,2.20
2018-11-13T02:20:25.159Z,2.50
2018-11-13T02:22:54.911Z,3.00
2018-11-13T02:25:24.662Z,3.90
2018-11-13T02:27:54.400Z,3.27
2018-11-13T02:30:24.199Z,3.87
2018-11-13T02:32:53.971Z,5.17
2018-11-13T02:35:23.849Z,4.53
2018-11-13T02:37:53.513Z,4.63
2018-11-13T02:40:23.467Z,4.93
2018-11-13T02:42:53.213Z,3.67
2018-11-13T02:45:22.976Z,3.83
2018-11-13T02:47:52.730Z,4.30
2018-11-13T02:50:22.665Z,4.93
2018-11-13T02:52:52.394Z,3.87
2018-11-13T02:55:22.151Z,3.63
2018-11-13T02:57:51.937Z,4.33
2018-11-13T03:00:22.312Z,5.10
2018-11-13T03:02:52.052Z,3.23
2018-11-13T03:05:22.446Z,3.43
2018-11-13T03:07:52.205Z,3.73
2018-11-13T03:10:21.998Z,3.73
2018-11-13T03:12:51.747Z,3.90
2018-11-13T03:15:21.808Z,4.57
2018-11-13T03:17:51.545Z,3.80
2018-11-13T03:20:21.347Z,5.27
2018-11-13T03:22:51.161Z,4.50
2018-11-13T03:25:21.878Z,5.30
2018-11-13T03:27:51.640Z,4.43
2018-11-13T03:30:22.612Z,6.30
2018-11-13T03:32:52.660Z,6.07
2018-11-13T03:35:22.402Z,7.10
2018-11-13T03:37:52.225Z,7.93
2018-11-13T03:40:21.987Z,8.47
2018-11-13T03:42:51.898Z,7.70
2018-11-13T03:45:21.655Z,9.53
2018-11-13T03:47:51.435Z,9.80
2018-11-13T03:50:22.144Z,7.10
2018-11-13T03:52:51.885Z,6.23
2018-11-13T03:55:21.702Z,5.23
2018-11-13T03:57:51.706Z,5.30
2018-11-13T04:00:22.735Z,5.83
2018-11-13T04:02:52.907Z,4.97
2018-11-13T04:05:22.966Z,4.80
2018-11-13T04:07:53.812Z,5.20
2018-11-13T04:10:24.346Z,5.30
2018-11-13T04:12:54.082Z,5.40
2018-11-13T04:15:24.989Z,4.67
2018-11-13T04:17:54.913Z,4.40
2018-11-13T04:20:24.718Z,4.77
2018-11-13T04:22:54.473Z,4.90
2018-11-13T04:25:24.241Z,4.40
2018-11-13T04:27:54.003Z,5.47
2018-11-13T04:30:23.768Z,4.10
2018-11-13T04:32:53.511Z,4.07
2018-11-13T04:35:23.258Z,5.30
2018-11-13T04:37:53.032Z,4.00
2018-11-13T04:40:22.797Z,3.33
2018-11-13T04:42:53.462Z,3.57
2018-11-13T04:45:24.619Z,3.80
2018-11-13T04:47:54.338Z,3.73
2018-11-13T04:50:24.243Z,3.83
2018-11-13T04:52:54.042Z,6.57
2018-11-13T04:55:23.790Z,9.43
2018-11-13T04:57:53.823Z,8.33
2018-11-13T05:00:24.329Z,6.17
2018-11-13T05:02:54.157Z,5.90
2018-11-13T05:05:23.856Z,5.33
2018-11-13T05:07:54.754Z,3.47
2018-11-13T05:10:25.719Z,3.60
2018-11-13T05:12:55.842Z,4.40
2018-11-13T05:15:25.604Z,3.33
2018-11-13T05:17:55.383Z,3.93
2018-11-13T05:20:25.189Z,3.10
2018-11-13T05:22:54.954Z,4.30
2018-11-13T05:25:24.698Z,3.10
2018-11-13T05:27:54.464Z,2.83
2018-11-13T05:30:24.387Z,2.37
2018-11-13T05:32:54.155Z,3.70
2018-11-13T05:35:23.935Z,2.87
2018-11-13T05:37:53.756Z,3.00
2018-11-13T05:40:24.574Z,2.60
2018-11-13T05:42:54.367Z,1.97
2018-11-13T05:45:25.419Z,3.23
2018-11-13T05:47:55.510Z,3.70
2018-11-13T05:50:25.254Z,2.57
2018-11-13T05:52:55.282Z,3.47
2018-11-13T05:55:25.126Z,4.00
2018-11-13T05:57:54.897Z,3.40
2018-11-13T06:00:28.526Z,3.70
2018-11-13T06:02:58.342Z,4.43
2018-11-13T06:05:28.268Z,2.57
2018-11-13T06:07:58.246Z,3.20
2018-11-13T06:10:28.009Z,3.20
2018-11-13T06:12:57.751Z,2.43
2018-11-13T06:15:27.535Z,2.67
2018-11-13T06:17:57.326Z,2.33
2018-11-13T06:20:27.369Z,2.77
2018-11-13T06:22:57.142Z,1.97
2018-11-13T06:25:26.895Z,1.87
2018-11-13T06:27:56.634Z,1.63
2018-11-13T06:30:26.683Z,2.23
2018-11-13T06:32:56.439Z,1.77
2018-11-13T06:35:26.214Z,1.73
2018-11-13T06:37:55.985Z,2.70
2018-11-13T06:40:25.731Z,2.70
2018-11-13T06:42:55.487Z,5.43
2018-11-13T06:45:25.220Z,2.53
2018-11-13T06:47:55.316Z,1.57
2018-11-13T06:50:25.054Z,1.67
2018-11-13T06:52:55.142Z,2.80
2018-11-13T06:55:32.099Z,4.03
2018-11-13T06:58:02.097Z,1.60
2018-11-13T07:00:31.878Z,3.20
2018-11-13T07:03:01.687Z,2.77
2018-11-13T07:05:31.426Z,3.17
2018-11-13T07:08:01.276Z,1.93
2018-11-13T07:10:31.347Z,3.30
2018-11-13T07:13:01.079Z,1.50
2018-11-13T07:15:31.682Z,2.97
2018-11-13T07:18:02.840Z,1.83
2018-11-13T07:20:33.893Z,3.73
2018-11-13T07:23:03.694Z,3.53
2018-11-13T07:25:33.480Z,3.43
2018-11-13T07:28:03.272Z,2.53
2018-11-13T07:30:33.033Z,3.50
2018-11-13T07:33:02.808Z,3.93
2018-11-13T07:35:32.593Z,3.03
2018-11-13T07:38:02.323Z,4.07
2018-11-13T07:40:32.106Z,4.07
2018-11-13T07:43:02.069Z,2.97
2018-11-13T07:45:31.926Z,4.03
2018-11-13T07:48:01.769Z,3.30
2018-11-13T07:50:31.449Z,4.60
2018-11-13T07:53:01.204Z,5.53
2018-11-13T07:55:30.960Z,2.90
2018-11-13T07:58:00.727Z,2.67
2018-11-13T08:00:30.483Z,3.33
2018-11-13T08:03:16.087Z,3.83
2018-11-13T08:05:45.894Z,2.53
2018-11-13T08:08:15.616Z,2.50
2018-11-13T08:10:45.381Z,2.00
2018-11-13T08:13:15.469Z,1.90
2018-11-13T08:15:45.095Z,3.40
2018-11-13T08:18:14.863Z,3.33
2018-11-13T08:20:45.619Z,3.77
2018-11-13T08:23:15.371Z,3.97
2018-11-13T08:25:45.228Z,4.40
2018-11-13T08:28:14.902Z,3.83
2018-11-13T08:30:44.649Z,5.37
2018-11-13T08:33:14.472Z,4.17
2018-11-13T08:35:44.228Z,4.20
2018-11-13T08:38:13.907Z,3.40
2018-11-13T08:40:43.670Z,4.23
2018-11-13T08:43:13.441Z,9.77
2018-11-13T08:45:43.366Z,4.17
2018-11-13T08:48:13.116Z,3.57
2018-11-13T08:50:42.954Z,2.73
2018-11-13T08:53:12.700Z,5.33
2018-11-13T08:55:42.460Z,6.67
2018-11-13T08:58:12.266Z,3.70
2018-11-13T09:00:42.328Z,3.57
2018-11-13T09:03:12.117Z,3.13
2018-11-13T09:05:41.880Z,4.73
2018-11-13T09:08:11.696Z,4.30
2018-11-13T09:10:41.497Z,3.93
2018-11-13T09:13:11.258Z,2.80
2018-11-13T09:15:41.055Z,4.33
2018-11-13T09:18:10.839Z,4.53
2018-11-13T09:20:40.607Z,3.20
2018-11-13T09:23:10.387Z,4.17
2018-11-13T09:25:40.216Z,5.13
2018-11-13T09:28:10.371Z,4.87
2018-11-13T09:30:40.366Z,5.47
2018-11-13T09:33:09.932Z,4.60
2018-11-13T09:35:39.727Z,3.97
2018-11-13T09:38:09.496Z,3.70
2018-11-13T09:40:39.276Z,5.90
2018-11-13T09:43:09.118Z,2.87
2018-11-13T09:45:38.881Z,2.93
2018-11-13T09:48:08.644Z,3.13
2018-11-13T09:50:38.462Z,4.07
2018-11-13T09:53:08.231Z,3.03
2018-11-13T09:55:38.004Z,6.07
2018-11-13T09:58:07.763Z,4.47
2018-11-13T10:00:37.728Z,3.60
2018-11-13T10:03:07.823Z,5.07
2018-11-13T10:05:37.257Z,3.10
2018-11-13T10:08:06.960Z,6.37
2018-11-13T10:10:36.785Z,5.70
2018-11-13T10:13:06.546Z,5.27
2018-11-13T10:15:36.316Z,4.37
2018-11-13T10:18:06.308Z,5.27
2018-11-13T10:20:35.876Z,4.77
2018-11-13T10:23:05.946Z,2.93
2018-11-13T10:25:36.143Z,3.93
2018-11-13T10:28:05.915Z,3.43
2018-11-13T10:30:35.737Z,4.40
2018-11-13T10:33:05.642Z,5.10
2018-11-13T10:35:35.501Z,2.33
2018-11-13T10:38:05.475Z,4.17
2018-11-13T10:40:35.363Z,5.53
2018-11-13T10:43:05.175Z,4.97
2018-11-13T10:45:34.940Z,3.13
2018-11-13T10:48:04.734Z,3.30
2018-11-13T10:50:34.523Z,4.00
2018-11-13T10:53:04.417Z,3.60
2018-11-13T10:55:34.187Z,1.90
2018-11-13T10:58:03.947Z,2.50
2018-11-13T11:00:39.413Z,3.00
2018-11-13T11:03:16.364Z,3.07
2018-11-13T11:05:46.501Z,5.30
2018-11-13T11:08:16.282Z,7.50
2018-11-13T11:10:46.052Z,3.83
2018-11-13T11:13:16.033Z,4.17
2018-11-13T11:15:45.626Z,4.33
2018-11-13T11:18:15.746Z,2.43
2018-11-13T11:20:45.412Z,3.17
2018-11-13T11:23:15.317Z,5.17
2018-11-13T11:25:44.991Z,3.20
2018-11-13T11:28:14.874Z,4.00
2018-11-13T11:30:44.662Z,3.10
2018-11-13T11:33:14.364Z,3.53
2018-11-13T11:35:44.224Z,2.90
2018-11-13T11:38:14.025Z,1.80
2018-11-13T11:40:43.797Z,4.43
2018-11-13T11:43:13.570Z,5.00
2018-11-13T11:45:43.350Z,4.70
2018-11-13T11:48:13.136Z,3.93
2018-11-13T11:50:42.992Z,4.77
2018-11-13T11:53:12.719Z,6.43
2018-11-13T11:55:42.500Z,6.83
2018-11-13T11:58:12.315Z,3.40
2018-11-13T12:00:42.138Z,3.33
2018-11-13T12:03:12.080Z,4.37
2018-11-13T12:05:41.868Z,6.27
2018-11-13T12:08:11.651Z,4.40
2018-11-13T12:10:41.469Z,2.33
2018-11-13T12:13:11.210Z,3.70
2018-11-13T12:15:41.030Z,3.97
2018-11-13T12:18:11.185Z,4.33
2018-11-13T12:20:40.981Z,3.63
2018-11-13T12:23:10.731Z,4.10
2018-11-13T12:25:40.644Z,3.43
2018-11-13T12:28:10.348Z,4.47
2018-11-13T12:30:40.126Z,5.93
2018-11-13T12:33:09.869Z,3.57
2018-11-13T12:35:39.726Z,4.30
2018-11-13T12:38:09.540Z,6.50
2018-11-13T12:40:46.117Z,3.77
2018-11-13T12:43:15.829Z,4.97
2018-11-13T12:45:45.614Z,6.13
2018-11-13T12:48:15.432Z,4.73
2018-11-13T12:50:50.435Z,4.83
2018-11-13T12:53:20.206Z,5.53
2018-11-13T12:55:50.401Z,4.70
2018-11-13T12:58:20.147Z,6.03
2018-11-13T13:00:50.047Z,2.70
2018-11-13T13:03:19.826Z,2.87
2018-11-13T13:05:49.602Z,5.93
2018-11-13T13:08:19.354Z,5.03
2018-11-13T13:10:49.143Z,2.80
2018-11-13T13:13:18.900Z,4.73
2018-11-13T13:15:48.953Z,3.70
2018-11-13T13:18:18.734Z,5.80
2018-11-13T13:20:48.523Z,4.03
2018-11-13T13:23:18.274Z,5.00
2018-11-13T13:25:48.090Z,4.23
2018-11-13T13:28:17.819Z,6.07
2018-11-13T13:30:47.604Z,5.40
2018-11-13T13:33:17.359Z,5.13
2018-11-13T13:35:49.245Z,3.03
2018-11-13T13:38:19.187Z,3.40
2018-11-13T13:40:50.199Z,6.07
2018-11-13T13:43:20.546Z,4.90
2018-11-13T13:45:50.876Z,3.83
2018-11-13T13:48:20.892Z,5.37
2018-11-13T13:50:50.656Z,4.87
2018-11-13T13:53:21.167Z,4.27
2018-11-13T13:55:51.264Z,2.67
2018-11-13T13:58:21.851Z,2.73
2018-11-13T14:00:52.220Z,3.27
2018-11-13T14:03:21.891Z,5.73
2018-11-13T14:05:51.813Z,3.63
2018-11-13T14:08:21.722Z,5.97
2018-11-13T14:10:51.807Z,4.90
2018-11-13T14:13:21.605Z,2.67
2018-11-13T14:15:51.397Z,3.80
2018-11-13T14:18:21.179Z,7.50
2018-11-13T14:20:51.097Z,4.97
2018-11-13T14:23:21.279Z,4.37
2018-11-13T14:25:51.088Z,6.27
2018-11-13T14:28:21.019Z,3.50
2018-11-13T14:30:50.840Z,2.77
2018-11-13T14:33:20.644Z,4.87
2018-11-13T14:35:50.480Z,3.63
2018-11-13T14:38:20.239Z,4.37
2018-11-13T14:40:50.215Z,4.73
2018-11-13T14:43:19.987Z,2.93
2018-11-13T14:45:49.800Z,4.83
2018-11-13T14:48:19.568Z,2.70
2018-11-13T14:50:49.390Z,5.23
2018-11-13T14:53:19.276Z,3.27
2018-11-13T14:55:48.972Z,3.17
2018-11-13T14:58:18.767Z,2.33
2018-11-13T15:00:48.532Z,3.03
2018-11-13T15:03:18.519Z,2.17
2018-11-13T15:05:48.315Z,3.67
2018-11-13T15:08:18.101Z,4.53
2018-11-13T15:10:49.936Z,4.73
2018-11-13T15:13:20.457Z,5.97
2018-11-13T15:15:50.249Z,3.53
2018-11-13T15:18:20.077Z,7.67
2018-11-13T15:20:50.847Z,2.97
2018-11-13T15:23:20.868Z,3.57
2018-11-13T15:25:50.672Z,6.23
2018-11-13T15:28:20.459Z,6.63
2018-11-13T15:30:51.124Z,3.17
2018-11-13T15:33:23.096Z,4.90
2018-11-13T15:35:52.875Z,4.90
2018-11-13T15:38:22.651Z,7.77
2018-11-13T15:40:52.499Z,5.53
2018-11-13T15:43:22.266Z,3.27
2018-11-13T15:45:52.050Z,6.43
2018-11-13T15:48:21.814Z,6.23
2018-11-13T15:50:51.649Z,5.90
2018-11-13T15:53:21.398Z,4.67
2018-11-13T15:55:51.392Z,2.57
2018-11-13T15:58:21.215Z,6.10
2018-11-13T16:00:50.961Z,3.37
2018-11-13T16:03:24.495Z,4.43
2018-11-13T16:05:55.796Z,4.87
2018-11-13T16:08:25.570Z,3.70
2018-11-13T16:10:55.359Z,5.93
2018-11-13T16:13:25.139Z,6.70
2018-11-13T16:15:54.911Z,4.90
2018-11-13T16:18:26.001Z,5.40
2018-11-13T16:20:55.777Z,4.73
2018-11-13T16:23:25.523Z,8.67
2018-11-13T16:25:55.306Z,6.83
2018-11-13T16:28:25.111Z,4.83
2018-11-13T16:30:54.997Z,7.83
2018-11-13T16:33:24.590Z,7.60
2018-11-13T16:35:54.376Z,6.10
2018-11-13T16:38:24.271Z,5.03
2018-11-13T16:40:53.913Z,6.97
2018-11-13T16:43:23.668Z,6.90
2018-11-13T16:45:53.447Z,8.57
2018-11-13T16:48:23.690Z,5.07
2018-11-13T16:50:53.298Z,6.73
2018-11-13T16:53:23.071Z,6.87
2018-11-13T16:55:57.307Z,4.47
2018-11-13T16:58:27.080Z,13.83
2018-11-13T17:00:56.868Z,15.87
2018-11-13T17:03:26.627Z,10.73
2018-11-13T17:05:56.410Z,8.83
2018-11-13T17:08:26.123Z,7.77
2018-11-13T17:10:55.870Z,7.20
2018-11-13T17:13:25.629Z,7.57
2018-11-13T17:15:55.392Z,7.90
2018-11-13T17:18:27.105Z,8.50
2018-11-13T17:20:54.899Z,10.87
2018-11-13T17:23:24.657Z,10.47
2018-11-13T17:25:54.460Z,7.77
2018-11-13T17:28:24.242Z,7.57
2018-11-13T17:30:54.016Z,7.17
2018-11-13T17:33:23.765Z,6.07
2018-11-13T17:35:53.532Z,8.50
2018-11-13T17:38:23.314Z,6.30
2018-11-13T17:40:53.107Z,9.33
2018-11-13T17:43:22.921Z,8.73
2018-11-13T17:45:52.682Z,9.10
2018-11-13T17:48:22.483Z,7.90
2018-11-13T17:50:52.274Z,9.07
2018-11-13T17:53:22.091Z,7.23
2018-11-13T17:55:51.841Z,10.30
2018-11-13T17:58:21.629Z,13.37
2018-11-13T18:00:51.406Z,9.00
2018-11-13T18:03:21.173Z,10.23
2018-11-13T18:05:51.020Z,7.73
2018-11-13T18:08:20.955Z,6.17
2018-11-13T18:10:50.702Z,9.97
2018-11-13T18:13:20.491Z,13.53
2018-11-13T18:15:50.267Z,4.43
2018-11-13T18:18:20.036Z,9.10
2018-11-13T18:20:49.775Z,6.93
2018-11-13T18:23:19.567Z,9.20
2018-11-13T18:25:49.309Z,10.57
2018-11-13T18:28:19.262Z,18.40
2018-11-13T18:30:48.892Z,14.50
2018-11-13T18:33:18.651Z,15.63
2018-11-13T18:35:48.416Z,17.17
2018-11-13T18:38:18.333Z,18.83
2018-11-13T18:40:47.999Z,15.40
2018-11-13T18:43:17.763Z,15.00
2018-11-13T18:45:47.513Z,14.20
2018-11-13T18:48:17.281Z,16.53
2018-11-13T18:50:47.162Z,12.87
2018-11-13T18:53:16.985Z,16.60
2018-11-13T18:55:46.698Z,9.07
2018-11-13T18:58:16.504Z,8.80
2018-11-13T19:00:46.292Z,12.00
2018-11-13T19:03:16.063Z,10.37
2018-11-13T19:05:45.811Z,11.13
2018-11-13T19:08:15.923Z,11.53
2018-11-13T19:10:47.075Z,11.43
2018-11-13T19:13:18.375Z,10.33
2018-11-13T19:15:53.368Z,12.57
2018-11-13T19:18:23.267Z,8.63
2018-11-13T19:20:53.031Z,14.60
2018-11-13T19:23:23.040Z,12.83
2018-11-13T19:25:52.819Z,15.13
2018-11-13T19:28:22.596Z,12.00
2018-11-13T19:30:52.402Z,9.47
2018-11-13T19:33:22.171Z,12.57
2018-11-13T19:35:52.041Z,9.30
2018-11-13T19:38:21.733Z,10.60
2018-11-13T19:40:51.454Z,7.77
2018-11-13T19:43:21.219Z,11.37
2018-11-13T19:45:51.541Z,10.00
2018-11-13T19:48:21.276Z,18.03
2018-11-13T19:50:51.065Z,13.10
2018-11-13T19:53:20.846Z,15.57
2018-11-13T19:55:50.554Z,15.43
2018-11-13T19:58:20.335Z,12.20
2018-11-13T20:00:50.104Z,12.70
2018-11-13T20:03:19.833Z,10.60
2018-11-13T20:05:49.550Z,7.73
2018-11-13T20:08:19.313Z,13.10
2018-11-13T20:10:49.074Z,9.53
2018-11-13T20:13:18.823Z,7.73
2018-11-13T20:15:48.581Z,10.93
2018-11-13T20:18:18.293Z,11.77
2018-11-13T20:20:48.002Z,9.20
2018-11-13T20:23:18.320Z,10.03
2018-11-13T20:25:48.063Z,10.13
2018-11-13T20:28:18.122Z,8.23
2018-11-13T20:30:47.873Z,7.90
2018-11-13T20:33:17.708Z,8.93
2018-11-13T20:35:47.422Z,11.07
2018-11-13T20:38:17.159Z,11.37
2018-11-13T20:40:46.914Z,8.00
2018-11-13T20:43:16.694Z,7.83
2018-11-13T20:45:46.725Z,7.50
2018-11-13T20:48:16.452Z,7.53
2018-11-13T20:50:46.194Z,10.03
2018-11-13T20:53:15.934Z,7.43
2018-11-13T20:55:45.675Z,8.83
2018-11-13T20:58:15.423Z,9.53
2018-11-13T21:00:45.153Z,8.37
2018-11-13T21:03:14.939Z,9.83
2018-11-13T21:05:44.772Z,7.90
2018-11-13T21:08:14.501Z,8.40
2018-11-13T21:10:44.295Z,9.00
2018-11-13T21:13:13.986Z,8.23
2018-11-13T21:15:43.739Z,6.50
2018-11-13T21:18:13.463Z,9.17
2018-11-13T21:20:43.196Z,9.33
2018-11-13T21:23:12.964Z,8.07
2018-11-13T21:25:42.694Z,7.57
2018-11-13T21:28:12.703Z,6.93
2018-11-13T21:30:42.556Z,9.55
2018-11-13T21:33:12.138Z,6.93
2018-11-13T21:35:41.886Z,9.17
2018-11-13T21:38:11.607Z,8.37
2018-11-13T21:40:41.373Z,6.57
2018-11-13T21:43:11.074Z,9.67
2018-11-13T21:45:40.820Z,7.40
2018-11-13T21:48:10.706Z,10.03
2018-11-13T21:50:40.453Z,7.33
2018-11-13T21:53:10.179Z,8.57
2018-11-13T21:55:40.007Z,8.37
2018-11-13T21:58:09.642Z,6.83
2018-11-13T22:00:39.690Z,7.97
2018-11-13T22:03:09.427Z,7.13
2018-11-13T22:05:39.155Z,7.80
2018-11-13T22:08:08.977Z,7.33
2018-11-13T22:10:38.927Z,7.80
2018-11-13T22:13:08.647Z,10.80
2018-11-13T22:15:38.390Z,7.50
2018-11-13T22:18:08.423Z,10.23
2018-11-13T22:20:43.617Z,11.90
2018-11-13T22:23:07.878Z,8.63
2018-11-13T22:25:37.911Z,9.97
2018-11-13T22:28:07.740Z,9.40
2018-11-13T22:30:37.437Z,8.17
2018-11-13T22:33:07.183Z,8.97
2018-11-13T22:35:36.924Z,5.90
2018-11-13T22:38:06.662Z,13.13
2018-11-13T22:40:36.416Z,9.53
2018-11-13T22:43:06.146Z,12.40
2018-11-13T22:45:35.884Z,8.40
2018-11-13T22:48:05.730Z,6.40
2018-11-13T22:50:35.880Z,9.07
2018-11-13T22:53:05.622Z,6.93
2018-11-13T22:55:35.338Z,8.27
2018-11-13T22:58:05.414Z,10.70
2018-11-13T23:00:39.991Z,7.47
2018-11-13T23:03:11.684Z,9.40
2018-11-13T23:05:41.929Z,9.03
2018-11-13T23:08:12.863Z,9.53
2018-11-13T23:10:42.682Z,10.00
2018-11-13T23:13:12.443Z,10.83
2018-11-13T23:15:42.224Z,10.63
2018-11-13T23:18:11.959Z,8.87
2018-11-13T23:20:41.711Z,9.03
2018-11-13T23:23:11.434Z,7.47
2018-11-13T23:25:41.143Z,9.13
2018-11-13T23:28:10.966Z,11.63
2018-11-13T23:30:40.655Z,6.50
2018-11-13T23:33:10.356Z,11.77
2018-11-13T23:35:40.102Z,11.80
2018-11-13T23:38:09.842Z,8.20
2018-11-13T23:40:39.869Z,9.00
2018-11-13T23:43:09.654Z,9.10
2018-11-13T23:45:39.375Z,9.80
2018-11-13T23:48:09.130Z,9.70
2018-11-13T23:50:38.911Z,10.73
2018-11-13T23:53:08.626Z,11.00
2018-11-13T23:55:38.694Z,10.13
2018-11-13T23:58:08.409Z,11.17
